Time;durP1;ratioP1;P1;durP2;ratioP2;P2;SDS_P1;SDS_P2;PMS_P1;PMS_P2;Temp;Humidity;BMP_temperature;BMP_pressure;BME280_temperature;BME280_humidity;BME280_pressure;Samples;Min_cycle;Max_cycle;Signal;HPM_P1;HPM_P2
2022/01/17 00:01:36;;;;;;;13.02;1.77;;;;;;;;;;5071350;28;20076;-87
2022/01/17 00:04:02;;;;;;;17.52;2.60;;;;;;;;;;5071426;28;20554;-87
2022/01/17 00:06:28;;;;;;;18.77;2.00;;;;;;;;;;5072681;28;20040;-87
2022/01/17 00:08:54;;;;;;;12.98;2.03;;;;;;;;;;5071732;28;20124;-88
2022/01/17 00:11:20;;;;;;;9.18;1.90;;;;;;;;;;5071615;28;20086;-86
2022/01/17 00:13:47;;;;;;;17.65;2.47;;;;;;;;;;5054626;28;20043;-86
2022/01/17 00:16:18;;;;;;;20.98;3.35;;;;;;;;;;5071531;28;20044;-87
2022/01/17 00:21:10;;;;;;;13.65;2.10;;;;;;;;;;5072528;28;20041;-88
2022/01/17 00:23:36;;;;;;;16.85;2.75;;;;;;;;;;5071197;28;20047;-87
2022/01/17 00:26:04;;;;;;;12.18;2.25;;;;;;;;;;5070985;28;20041;-87
2022/01/17 00:28:30;;;;;;;15.85;2.42;;;;;;;;;;5071302;28;20116;-87
2022/01/17 00:30:56;;;;;;;14.43;2.42;;;;;;;;;;5072417;28;20036;-87
2022/01/17 00:33:22;;;;;;;12.27;1.90;;;;;;;;;;5072614;28;20123;-87
2022/01/17 00:35:48;;;;;;;15.73;2.33;;;;;;;;;;5071073;28;20188;-87
2022/01/17 00:38:14;;;;;;;13.27;1.92;;;;;;;;;;5071074;28;20056;-87
2022/01/17 00:40:41;;;;;;;19.60;3.08;;;;;;;;;;5071172;28;20052;-87
2022/01/17 00:43:07;;;;;;;10.82;2.53;;;;;;;;;;5071070;28;20400;-88
2022/01/17 00:45:35;;;;;;;18.95;2.78;;;;;;;;;;5072339;28;20052;-87
2022/01/17 00:48:01;;;;;;;15.63;2.67;;;;;;;;;;5054282;28;20041;-87
2022/01/17 00:50:28;;;;;;;19.80;2.55;;;;;;;;;;5072846;28;20040;-87
2022/01/17 00:52:55;;;;;;;17.73;2.60;;;;;;;;;;5074727;28;20047;-87
2022/01/17 00:55:21;;;;;;;14.45;2.63;;;;;;;;;;5075215;28;20044;-87
2022/01/17 00:57:47;;;;;;;14.93;2.38;;;;;;;;;;5074712;28;20036;-88
2022/01/17 01:00:13;;;;;;;17.80;2.85;;;;;;;;;;5058317;28;20124;-87
2022/01/17 01:02:40;;;;;;;15.68;2.35;;;;;;;;;;5075758;28;20044;-88
2022/01/17 01:05:06;;;;;;;16.75;2.45;;;;;;;;;;5075219;28;20222;-88
2022/01/17 01:07:32;;;;;;;13.82;2.67;;;;;;;;;;5074546;28;20051;-87
2022/01/17 01:10:07;;;;;;;18.02;2.95;;;;;;;;;;5074946;28;20036;-87
2022/01/17 01:12:33;;;;;;;21.67;2.78;;;;;;;;;;5074724;28;20520;-87
2022/01/17 01:14:59;;;;;;;19.17;3.00;;;;;;;;;;5074601;28;20130;-88
2022/01/17 01:17:35;;;;;;;19.30;2.38;;;;;;;;;;5075853;28;20068;-88
2022/01/17 01:28:21;;;;;;;14.57;2.67;;;;;;;;;;5074156;28;20044;-88
2022/01/17 01:30:50;;;;;;;14.13;3.10;;;;;;;;;;5074387;28;20036;-87
2022/01/17 01:33:23;;;;;;;16.25;2.40;;;;;;;;;;5057577;28;20377;-88
2022/01/17 01:35:56;;;;;;;19.55;3.25;;;;;;;;;;5075786;28;20530;-88
2022/01/17 01:38:22;;;;;;;15.15;2.67;;;;;;;;;;5073986;28;20564;-87
2022/01/17 01:40:48;;;;;;;17.13;3.10;;;;;;;;;;5075443;28;20124;-88
2022/01/17 01:43:14;;;;;;;16.02;2.83;;;;;;;;;;5073761;28;20059;-88
2022/01/17 01:45:41;;;;;;;19.52;2.65;;;;;;;;;;5074156;28;20071;-88
2022/01/17 01:48:08;;;;;;;16.88;2.40;;;;;;;;;;5057162;28;20598;-87
2022/01/17 01:50:34;;;;;;;15.00;2.80;;;;;;;;;;5074090;28;20064;-87
2022/01/17 01:53:00;;;;;;;19.10;1.90;;;;;;;;;;5075331;28;20036;-87
2022/01/17 01:55:26;;;;;;;15.30;2.53;;;;;;;;;;5073871;28;20377;-87
2022/01/17 01:57:52;;;;;;;17.27;2.47;;;;;;;;;;5073678;28;20104;-87
2022/01/17 02:00:19;;;;;;;16.40;2.33;;;;;;;;;;5058305;28;20474;-87
2022/01/17 02:02:45;;;;;;;17.33;2.90;;;;;;;;;;5072116;28;20048;-87
2022/01/17 02:05:11;;;;;;;13.20;1.58;;;;;;;;;;5073806;28;20095;-88
2022/01/17 02:07:38;;;;;;;16.00;2.70;;;;;;;;;;5073800;28;20052;-87
2022/01/17 02:10:05;;;;;;;16.23;2.60;;;;;;;;;;5057221;28;20132;-87
2022/01/17 02:12:32;;;;;;;21.23;3.45;;;;;;;;;;5073674;28;20044;-87
2022/01/17 02:14:58;;;;;;;15.07;3.30;;;;;;;;;;5074966;28;20037;-87
2022/01/17 02:17:25;;;;;;;19.30;2.55;;;;;;;;;;5073285;28;20040;-88
2022/01/17 02:20:07;;;;;;;17.85;2.40;;;;;;;;;;5073395;28;20032;-87
2022/01/17 02:22:33;;;;;;;18.23;2.55;;;;;;;;;;5073120;28;20047;-88
2022/01/17 02:24:59;;;;;;;15.60;2.38;;;;;;;;;;5073229;28;20119;-87
2022/01/17 02:27:25;;;;;;;13.20;2.60;;;;;;;;;;5073411;28;20128;-88
2022/01/17 02:29:51;;;;;;;19.88;2.42;;;;;;;;;;5073223;28;20044;-87
2022/01/17 02:32:17;;;;;;;17.42;2.53;;;;;;;;;;5073032;28;20045;-87
2022/01/17 02:34:44;;;;;;;24.27;2.80;;;;;;;;;;5073310;28;20048;-88
2022/01/17 02:37:10;;;;;;;14.30;2.65;;;;;;;;;;5072829;28;20044;-87
2022/01/17 02:39:37;;;;;;;15.45;2.88;;;;;;;;;;5072842;28;20524;-87
2022/01/17 02:42:03;;;;;;;16.17;3.80;;;;;;;;;;5072866;28;20484;-88
2022/01/17 02:44:29;;;;;;;12.23;2.33;;;;;;;;;;5072797;28;20049;-88
2022/01/17 02:46:55;;;;;;;16.20;2.33;;;;;;;;;;5056347;28;20388;-87
2022/01/17 02:49:21;;;;;;;18.98;2.72;;;;;;;;;;5074307;28;20036;-88
2022/01/17 02:51:48;;;;;;;17.98;2.72;;;;;;;;;;5072880;28;20043;-88
2022/01/17 02:54:17;;;;;;;15.73;2.05;;;;;;;;;;5074007;28;20049;-87
2022/01/17 02:56:43;;;;;;;11.57;1.88;;;;;;;;;;5074229;28;20051;-87
2022/01/17 02:59:09;;;;;;;20.00;2.70;;;;;;;;;;5072768;28;20041;-88
2022/01/17 03:01:35;;;;;;;14.98;3.83;;;;;;;;;;5056111;28;20442;-87
2022/01/17 03:04:01;;;;;;;18.23;2.75;;;;;;;;;;5072288;28;20204;-88
2022/01/17 03:06:28;;;;;;;19.40;2.58;;;;;;;;;;5072501;28;20131;-87
2022/01/17 03:08:54;;;;;;;14.05;1.98;;;;;;;;;;5072181;28;20049;-87
2022/01/17 03:11:25;;;;;;;20.10;2.85;;;;;;;;;;5073747;28;20037;-87
2022/01/17 03:13:52;;;;;;;20.92;3.38;;;;;;;;;;5071900;28;20059;-88
2022/01/17 03:16:19;;;;;;;17.35;2.63;;;;;;;;;;5072589;28;20369;-87
2022/01/17 03:18:52;;;;;;;17.90;2.45;;;;;;;;;;5072259;28;20501;-89
2022/01/17 03:21:20;;;;;;;16.75;2.50;;;;;;;;;;5072509;28;20044;-87
2022/01/17 03:23:46;;;;;;;17.20;2.25;;;;;;;;;;5071825;28;20484;-88
2022/01/17 03:26:12;;;;;;;16.85;2.30;;;;;;;;;;5072234;28;20060;-87
2022/01/17 03:28:39;;;;;;;20.77;3.05;;;;;;;;;;5073428;28;20048;-87
2022/01/17 03:31:05;;;;;;;24.48;2.95;;;;;;;;;;5072091;28;20121;-88
2022/01/17 03:33:32;;;;;;;15.77;2.13;;;;;;;;;;5071882;28;20040;-88
2022/01/17 03:35:58;;;;;;;14.40;2.40;;;;;;;;;;5072235;28;20098;-87
2022/01/17 03:38:25;;;;;;;16.95;2.15;;;;;;;;;;5071570;28;20060;-88
2022/01/17 03:40:51;;;;;;;17.05;2.50;;;;;;;;;;5072135;28;20056;-88
2022/01/17 03:43:22;;;;;;;14.50;2.30;;;;;;;;;;5071624;28;20063;-87
2022/01/17 03:45:49;;;;;;;17.98;2.38;;;;;;;;;;5071859;28;20036;-87
2022/01/17 03:48:15;;;;;;;18.73;2.38;;;;;;;;;;5071685;28;20044;-88
2022/01/17 03:50:41;;;;;;;19.20;2.92;;;;;;;;;;5071792;28;20037;-87
2022/01/17 03:53:07;;;;;;;16.73;2.22;;;;;;;;;;5072913;28;20098;-89
2022/01/17 03:55:34;;;;;;;17.60;2.80;;;;;;;;;;5072085;28;20036;-88
2022/01/17 03:58:01;;;;;;;15.20;2.13;;;;;;;;;;5073050;28;20044;-87
2022/01/17 04:00:28;;;;;;;14.77;2.13;;;;;;;;;;5073175;28;20052;-87
2022/01/17 04:02:55;;;;;;;15.13;2.60;;;;;;;;;;5071303;28;20050;-88
2022/01/17 04:05:21;;;;;;;14.38;2.95;;;;;;;;;;5071549;28;20036;-88
2022/01/17 04:07:47;;;;;;;18.13;2.85;;;;;;;;;;5071393;28;20040;-88
2022/01/17 04:10:13;;;;;;;17.55;2.25;;;;;;;;;;5071683;28;20433;-88
2022/01/17 04:12:40;;;;;;;15.07;2.55;;;;;;;;;;5072793;28;20044;-88
2022/01/17 04:15:07;;;;;;;11.73;1.65;;;;;;;;;;5071652;28;20045;-87
2022/01/17 04:17:33;;;;;;;20.77;2.63;;;;;;;;;;5054698;28;20480;-87
2022/01/17 04:20:07;;;;;;;24.83;3.35;;;;;;;;;;5071595;28;20507;-87
2022/01/17 04:22:36;;;;;;;10.70;2.08;;;;;;;;;;5055635;28;20476;-88
2022/01/17 04:25:03;;;;;;;17.30;2.22;;;;;;;;;;5072651;28;20067;-87
2022/01/17 04:27:29;;;;;;;14.68;2.63;;;;;;;;;;5075816;28;20032;-87
2022/01/17 04:29:55;;;;;;;16.60;2.67;;;;;;;;;;5075938;28;20136;-88
2022/01/17 04:32:21;;;;;;;17.75;3.00;;;;;;;;;;5075595;28;20058;-87
2022/01/17 04:34:47;;;;;;;18.42;2.13;;;;;;;;;;5076661;28;20066;-87
2022/01/17 04:37:13;;;;;;;16.08;3.15;;;;;;;;;;5075372;28;20049;-87
2022/01/17 04:39:39;;;;;;;16.42;2.15;;;;;;;;;;5074987;28;20057;-87
2022/01/17 04:42:12;;;;;;;16.45;2.60;;;;;;;;;;5075234;28;20047;-87
2022/01/17 04:47:23;;;;;;;15.80;2.28;;;;;;;;;;5075445;28;20400;-88
2022/01/17 04:49:48;;;;;;;13.32;1.83;;;;;;;;;;5074941;28;20118;-88
2022/01/17 04:52:14;;;;;;;14.43;2.03;;;;;;;;;;5075097;28;20113;-88
2022/01/17 04:54:42;;;;;;;13.32;2.25;;;;;;;;;;5076270;28;20048;-87
2022/01/17 04:57:12;;;;;;;13.77;2.22;;;;;;;;;;5075061;28;20048;-88
2022/01/17 04:59:41;;;;;;;13.70;2.15;;;;;;;;;;5074700;28;20045;-88
2022/01/17 05:02:08;;;;;;;12.45;2.22;;;;;;;;;;5076142;28;20037;-88
2022/01/17 05:04:34;;;;;;;19.80;2.60;;;;;;;;;;5074435;28;20128;-87
2022/01/17 05:07:00;;;;;;;14.45;2.90;;;;;;;;;;5074735;28;20116;-88
2022/01/17 05:09:25;;;;;;;12.77;2.58;;;;;;;;;;5074774;28;20119;-87
2022/01/17 05:11:52;;;;;;;15.38;2.45;;;;;;;;;;5074758;28;20511;-87
2022/01/17 05:14:18;;;;;;;14.90;2.33;;;;;;;;;;5074353;28;20075;-88
2022/01/17 05:16:49;;;;;;;13.05;2.50;;;;;;;;;;5058103;28;20044;-89
2022/01/17 05:22:00;;;;;;;14.10;2.38;;;;;;;;;;5074442;28;20480;-87
2022/01/17 05:24:26;;;;;;;15.68;2.25;;;;;;;;;;5075501;28;20040;-87
2022/01/17 05:26:52;;;;;;;12.02;2.28;;;;;;;;;;5074568;28;20068;-87
2022/01/17 05:29:19;;;;;;;18.23;2.83;;;;;;;;;;5075556;28;20075;-87
2022/01/17 05:31:45;;;;;;;15.30;2.60;;;;;;;;;;5074210;28;20037;-88
2022/01/17 05:34:11;;;;;;;15.95;3.00;;;;;;;;;;5075380;28;20053;-87
2022/01/17 05:36:37;;;;;;;17.23;2.08;;;;;;;;;;5074536;28;20450;-88
2022/01/17 05:39:03;;;;;;;17.80;4.22;;;;;;;;;;5073832;28;20057;-88
2022/01/17 05:41:29;;;;;;;13.52;2.72;;;;;;;;;;5075648;28;20049;-87
2022/01/17 05:43:55;;;;;;;16.45;3.30;;;;;;;;;;5073791;28;20384;-89
2022/01/17 05:46:21;;;;;;;20.08;3.08;;;;;;;;;;5075526;28;20044;-88
2022/01/17 05:48:47;;;;;;;16.65;2.70;;;;;;;;;;5073765;28;20048;-87
2022/01/17 05:51:13;;;;;;;14.77;2.88;;;;;;;;;;5074286;28;20059;-87
2022/01/17 05:53:39;;;;;;;16.52;2.75;;;;;;;;;;5057031;28;20499;-88
2022/01/17 05:56:05;;;;;;;16.25;3.67;;;;;;;;;;5073856;28;20052;-87
2022/01/17 05:58:31;;;;;;;18.40;3.58;;;;;;;;;;5074319;28;20048;-87
2022/01/17 06:00:57;;;;;;;18.77;3.63;;;;;;;;;;5073589;28;20124;-87
2022/01/17 06:03:25;;;;;;;19.13;3.10;;;;;;;;;;5073720;28;20076;-87
2022/01/17 06:05:51;;;;;;;20.10;3.65;;;;;;;;;;5073504;28;20396;-87
2022/01/17 06:08:17;;;;;;;16.73;3.33;;;;;;;;;;5073692;28;20036;-87
2022/01/17 06:10:43;;;;;;;18.13;2.70;;;;;;;;;;5073427;28;20036;-87
2022/01/17 06:13:09;;;;;;;19.25;3.10;;;;;;;;;;5073442;28;20101;-87
2022/01/17 06:15:35;;;;;;;16.67;3.00;;;;;;;;;;5073387;28;20127;-87
2022/01/17 06:18:01;;;;;;;17.15;3.92;;;;;;;;;;5056641;28;20106;-88
2022/01/17 06:20:28;;;;;;;23.13;4.30;;;;;;;;;;5074736;28;20037;-88
2022/01/17 06:22:53;;;;;;;20.95;3.25;;;;;;;;;;5074516;28;20048;-87
2022/01/17 06:25:20;;;;;;;15.13;3.28;;;;;;;;;;5073146;28;20509;-88
2022/01/17 06:27:46;;;;;;;17.23;3.38;;;;;;;;;;5073316;28;20119;-87
2022/01/17 06:30:13;;;;;;;16.30;3.53;;;;;;;;;;5073290;28;20036;-87
2022/01/17 06:32:39;;;;;;;13.32;3.20;;;;;;;;;;5073079;28;20558;-87
2022/01/17 06:35:05;;;;;;;18.27;3.30;;;;;;;;;;5056278;28;20040;-87
2022/01/17 06:37:31;;;;;;;14.13;4.10;;;;;;;;;;5073398;28;20044;-87
2022/01/17 06:39:57;;;;;;;19.02;3.17;;;;;;;;;;5072702;28;20052;-87
2022/01/17 06:42:24;;;;;;;19.77;4.57;;;;;;;;;;5072929;28;20072;-87
2022/01/17 06:44:50;;;;;;;20.55;5.45;;;;;;;;;;5072620;28;20131;-88
2022/01/17 06:47:16;;;;;;;18.92;3.67;;;;;;;;;;5072247;28;20122;-87
2022/01/17 06:49:42;;;;;;;23.80;3.58;;;;;;;;;;5072526;28;20123;-87
2022/01/17 06:52:08;;;;;;;25.35;4.63;;;;;;;;;;5072839;28;20040;-87
2022/01/17 06:54:34;;;;;;;22.95;4.32;;;;;;;;;;5073449;28;20044;-88
2022/01/17 06:57:00;;;;;;;21.45;3.72;;;;;;;;;;5072771;28;20052;-88
2022/01/17 06:59:26;;;;;;;26.75;4.15;;;;;;;;;;5072505;28;20040;-88
2022/01/17 07:01:52;;;;;;;21.85;4.20;;;;;;;;;;5073799;28;20475;-87
2022/01/17 07:04:19;;;;;;;14.88;3.42;;;;;;;;;;5072502;28;20481;-87
2022/01/17 07:06:45;;;;;;;22.73;3.83;;;;;;;;;;5072258;28;20388;-88
2022/01/17 07:09:14;;;;;;;21.65;4.00;;;;;;;;;;5072682;28;20067;-87
2022/01/17 07:11:41;;;;;;;26.67;3.85;;;;;;;;;;5055777;28;20098;-88
2022/01/17 07:14:08;;;;;;;24.63;4.60;;;;;;;;;;5072269;28;20446;-88
2022/01/17 07:16:35;;;;;;;22.55;4.32;;;;;;;;;;5073437;28;20072;-87
2022/01/17 07:19:01;;;;;;;26.38;4.63;;;;;;;;;;5072653;28;20048;-87
2022/01/17 07:21:28;;;;;;;26.33;4.82;;;;;;;;;;5073313;28;20491;-87
2022/01/17 07:23:54;;;;;;;14.13;3.22;;;;;;;;;;5055357;28;20040;-87
2022/01/17 07:26:20;;;;;;;23.55;4.35;;;;;;;;;;5072169;28;20127;-88
2022/01/17 07:28:46;;;;;;;21.45;4.20;;;;;;;;;;5072135;28;20066;-86
2022/01/17 07:31:12;;;;;;;23.50;4.32;;;;;;;;;;5071873;28;20036;-87
2022/01/17 07:33:38;;;;;;;23.58;3.22;;;;;;;;;;5073493;28;20040;-85
2022/01/17 07:36:05;;;;;;;23.52;4.95;;;;;;;;;;5072086;28;20369;-87
2022/01/17 07:38:31;;;;;;;27.75;4.47;;;;;;;;;;5071806;28;20052;-87
2022/01/17 07:40:57;;;;;;;21.27;4.25;;;;;;;;;;5071814;28;20124;-86
2022/01/17 07:43:23;;;;;;;29.33;3.58;;;;;;;;;;5071801;28;20123;-87
2022/01/17 07:46:04;;;;;;;28.77;4.35;;;;;;;;;;5072996;28;20338;-88
2022/01/17 07:48:58;;;;;;;33.70;4.82;;;;;;;;;;5071887;28;20044;-86
2022/01/17 07:51:25;;;;;;;18.30;3.90;;;;;;;;;;5054424;28;20058;-85
2022/01/17 07:53:51;;;;;;;24.80;4.13;;;;;;;;;;5072576;28;20101;-81
2022/01/17 07:56:17;;;;;;;22.90;4.82;;;;;;;;;;5070880;28;20051;-89
2022/01/17 07:58:44;;;;;;;30.85;4.05;;;;;;;;;;5088653;28;20086;-81
2022/01/17 08:01:10;;;;;;;20.85;3.55;;;;;;;;;;5092736;28;20048;-84
2022/01/17 08:03:36;;;;;;;31.60;3.90;;;;;;;;;;5091483;28;20044;-86
2022/01/17 08:06:02;;;;;;;25.10;4.68;;;;;;;;;;5092634;28;20089;-86
2022/01/17 08:08:28;;;;;;;25.02;4.70;;;;;;;;;;5090867;28;20065;-86
2022/01/17 08:10:54;;;;;;;26.98;4.60;;;;;;;;;;5091103;28;20040;-90
2022/01/17 08:13:20;;;;;;;23.70;4.25;;;;;;;;;;5091209;28;20070;-86
2022/01/17 08:15:47;;;;;;;28.88;4.03;;;;;;;;;;5092049;28;20084;-86
2022/01/17 08:18:13;;;;;;;26.23;5.35;;;;;;;;;;5095955;28;20051;-85
2022/01/17 08:20:40;;;;;;;23.38;4.93;;;;;;;;;;5092348;28;20044;-86
2022/01/17 08:23:06;;;;;;;27.80;5.03;;;;;;;;;;5092375;28;20044;-86
2022/01/17 08:25:32;;;;;;;23.38;3.65;;;;;;;;;;5090953;28;20048;-86
2022/01/17 08:27:58;;;;;;;26.17;4.68;;;;;;;;;;5091338;28;20058;-86
2022/01/17 08:30:24;;;;;;;18.83;3.80;;;;;;;;;;5092348;28;20032;-86
2022/01/17 08:32:51;;;;;;;29.77;4.40;;;;;;;;;;5074244;28;20048;-86
2022/01/17 08:35:17;;;;;;;23.85;4.13;;;;;;;;;;5090652;28;20040;-86
2022/01/17 08:37:43;;;;;;;27.42;4.47;;;;;;;;;;5091059;28;20064;-85
2022/01/17 08:40:10;;;;;;;28.95;4.55;;;;;;;;;;5080660;28;20076;-87
2022/01/17 08:42:37;;;;;;;26.10;4.15;;;;;;;;;;5070980;28;20119;-87
2022/01/17 08:45:05;;;;;;;34.72;5.03;;;;;;;;;;5071130;28;20045;-87
2022/01/17 08:47:31;;;;;;;21.48;3.97;;;;;;;;;;5071165;28;20037;-87
2022/01/17 08:49:57;;;;;;;34.20;5.32;;;;;;;;;;5071126;28;20040;-87
2022/01/17 08:52:23;;;;;;;23.27;4.60;;;;;;;;;;5072129;28;20458;-86
2022/01/17 08:54:49;;;;;;;33.35;5.07;;;;;;;;;;5071033;28;20044;-87
2022/01/17 08:57:17;;;;;;;30.48;4.72;;;;;;;;;;5070794;28;20056;-87
2022/01/17 08:59:43;;;;;;;24.77;4.40;;;;;;;;;;5071015;28;20048;-87
2022/01/17 09:02:09;;;;;;;25.45;4.70;;;;;;;;;;5071062;28;20102;-87
2022/01/17 09:04:40;;;;;;;21.90;4.15;;;;;;;;;;5070872;28;20060;-88
2022/01/17 09:07:06;;;;;;;26.05;4.35;;;;;;;;;;5071224;28;20041;-86
2022/01/17 09:09:32;;;;;;;33.33;5.35;;;;;;;;;;5070844;28;20123;-85
2022/01/17 09:11:58;;;;;;;32.53;5.72;;;;;;;;;;5073180;28;20171;-86
2022/01/17 09:14:24;;;;;;;28.70;4.78;;;;;;;;;;5074516;28;20400;-87
2022/01/17 09:16:50;;;;;;;30.52;4.35;;;;;;;;;;5074386;28;20047;-87
2022/01/17 09:19:16;;;;;;;27.50;4.75;;;;;;;;;;5074561;28;20044;-86
2022/01/17 09:21:42;;;;;;;27.35;5.53;;;;;;;;;;5074418;28;20080;-88
2022/01/17 09:24:08;;;;;;;27.52;5.25;;;;;;;;;;5074309;28;20395;-85
2022/01/17 09:26:34;;;;;;;26.92;4.88;;;;;;;;;;5074288;28;20124;-87
2022/01/17 09:29:00;;;;;;;32.00;4.80;;;;;;;;;;5075918;28;20372;-87
2022/01/17 09:31:26;;;;;;;27.77;5.38;;;;;;;;;;5074624;28;20086;-87
2022/01/17 09:33:52;;;;;;;29.15;5.13;;;;;;;;;;5074109;28;20527;-87
2022/01/17 09:36:20;;;;;;;27.00;5.50;;;;;;;;;;5073988;28;20036;-87
2022/01/17 09:38:46;;;;;;;33.38;4.72;;;;;;;;;;5074107;28;20053;-89
2022/01/17 09:41:12;;;;;;;36.30;5.88;;;;;;;;;;5073933;28;20052;-88
2022/01/17 09:43:39;;;;;;;29.05;5.70;;;;;;;;;;5074399;28;20279;-88
2022/01/17 09:46:05;;;;;;;31.80;5.03;;;;;;;;;;5074076;28;20147;-86
2022/01/17 09:48:36;;;;;;;33.45;5.75;;;;;;;;;;5073940;28;20396;-85
2022/01/17 09:51:15;;;;;;;36.65;5.95;;;;;;;;;;5073990;28;20067;-86
2022/01/17 09:53:41;;;;;;;33.50;5.90;;;;;;;;;;5073862;28;20059;-90
2022/01/17 09:56:07;;;;;;;32.35;5.75;;;;;;;;;;5074037;28;20121;-87
2022/01/17 09:58:36;;;;;;;29.98;5.15;;;;;;;;;;5074040;28;20084;-87
2022/01/17 10:01:03;;;;;;;39.53;6.20;;;;;;;;;;5073816;28;20045;-87
2022/01/17 10:03:30;;;;;;;34.35;6.78;;;;;;;;;;5073352;28;20461;-86
2022/01/17 10:05:56;;;;;;;32.83;5.95;;;;;;;;;;5073917;28;20094;-87
2022/01/17 10:08:23;;;;;;;31.30;6.10;;;;;;;;;;5056680;28;20466;-87
2022/01/17 10:10:52;;;;;;;42.03;6.40;;;;;;;;;;5073569;28;20036;-87
2022/01/17 10:13:23;;;;;;;31.85;5.90;;;;;;;;;;5056791;28;20051;-86
2022/01/17 10:16:08;;;;;;;40.90;6.15;;;;;;;;;;5056813;28;20052;-87
2022/01/17 10:18:54;;;;;;;29.65;5.65;;;;;;;;;;5074677;28;20076;-87
2022/01/17 10:21:37;;;;;;;32.28;5.47;;;;;;;;;;5056810;28;20058;-87
2022/01/17 10:37:15;;;;;;;34.03;6.50;;;;;;;;;;5072896;28;20052;-87
2022/01/17 10:39:54;;;;;;;33.22;5.55;;;;;;;;;;5073060;28;20060;-87
2022/01/17 10:42:25;;;;;;;42.63;6.80;;;;;;;;;;5073065;28;20449;-87
2022/01/17 10:44:50;;;;;;;40.83;6.68;;;;;;;;;;5072750;28;20098;-87
2022/01/17 10:47:19;;;;;;;43.25;7.53;;;;;;;;;;5056004;28;20044;-86
2022/01/17 10:49:49;;;;;;;42.45;6.78;;;;;;;;;;5076335;28;20048;-87
2022/01/17 10:52:35;;;;;;;37.22;7.00;;;;;;;;;;5072384;28;20115;-87
2022/01/17 10:55:01;;;;;;;;;;;;;;;;;;5073198;28;20048;-86
2022/01/17 10:57:27;;;;;;;32.25;6.60;;;;;;;;;;5072756;28;19927;-87
2022/01/17 10:59:53;;;;;;;38.00;6.45;;;;;;;;;;5072798;28;20044;-86
2022/01/17 11:02:24;;;;;;;44.13;7.28;;;;;;;;;;5072443;28;20051;-93
2022/01/17 11:04:50;;;;;;;31.05;6.40;;;;;;;;;;5072375;28;20041;-87
2022/01/17 11:07:16;;;;;;;35.83;6.68;;;;;;;;;;5072244;28;20043;-88
2022/01/17 11:09:43;;;;;;;36.00;6.25;;;;;;;;;;5072338;28;20101;-86
2022/01/17 11:12:10;;;;;;;40.65;6.70;;;;;;;;;;5073662;28;20044;-86
2022/01/17 11:14:36;;;;;;;35.60;6.70;;;;;;;;;;5072418;28;20045;-86
2022/01/17 11:17:16;;;;;;;44.42;8.27;;;;;;;;;;5055430;28;20048;-86
2022/01/17 11:20:04;;;;;;;33.58;6.72;;;;;;;;;;5073719;28;20089;-86
2022/01/17 11:22:30;;;;;;;38.72;6.65;;;;;;;;;;5072349;28;20080;-86
2022/01/17 11:24:59;;;;;;;34.40;6.32;;;;;;;;;;5072021;28;20395;-87
2022/01/17 11:27:26;;;;;;;37.97;7.75;;;;;;;;;;5071908;28;20118;-87
2022/01/17 11:29:52;;;;;;;41.35;7.32;;;;;;;;;;5072334;28;20052;-87
2022/01/17 11:32:19;;;;;;;41.15;6.65;;;;;;;;;;5071904;28;20044;-87
2022/01/17 11:34:45;;;;;;;36.60;7.32;;;;;;;;;;5071605;28;20089;-86
2022/01/17 11:37:12;;;;;;;36.92;6.97;;;;;;;;;;5071840;28;20042;-85
2022/01/17 11:39:44;;;;;;;46.63;7.68;;;;;;;;;;5072969;28;20131;-93
2022/01/17 11:42:29;;;;;;;34.17;7.05;;;;;;;;;;5071694;28;20058;-87
2022/01/17 11:44:55;;;;;;;44.65;7.43;;;;;;;;;;5071906;28;20063;-85
2022/01/17 11:47:39;;;;;;;38.22;7.13;;;;;;;;;;5071800;28;20114;-87
2022/01/17 11:50:24;;;;;;;45.80;7.72;;;;;;;;;;5072022;28;20064;-86
2022/01/17 11:52:50;;;;;;;32.38;7.05;;;;;;;;;;5071966;28;20052;-87
2022/01/17 11:55:35;;;;;;;36.25;6.68;;;;;;;;;;5071866;28;20421;-88
2022/01/17 11:58:16;;;;;;;45.13;7.97;;;;;;;;;;5071709;28;20075;-86
2022/01/17 12:00:43;;;;;;;39.88;6.90;;;;;;;;;;5071612;28;20098;-87
2022/01/17 12:03:20;;;;;;;37.22;6.80;;;;;;;;;;5056584;28;20121;-88
2022/01/17 12:05:46;;;;;;;39.17;7.25;;;;;;;;;;5071725;28;20165;-87
2022/01/17 12:08:22;;;;;;;37.80;6.90;;;;;;;;;;5071808;28;20037;-88
2022/01/17 12:10:49;;;;;;;37.72;7.25;;;;;;;;;;5071730;28;20082;-89
2022/01/17 12:13:18;;;;;;;38.75;7.90;;;;;;;;;;5071278;28;20093;-87
2022/01/17 12:16:06;;;;;;;41.72;7.75;;;;;;;;;;5054786;28;20036;-87
2022/01/17 12:18:34;;;;;;;31.92;6.05;;;;;;;;;;5072692;28;20037;-87
2022/01/17 12:21:36;;;;;;;35.03;6.43;;;;;;;;;;5071492;28;20136;-89
2022/01/17 12:24:17;;;;;;;36.67;7.05;;;;;;;;;;5033429;28;20041;-88
2022/01/17 12:27:04;;;;;;;31.40;6.28;;;;;;;;;;5067630;28;20487;-89
2022/01/17 12:29:37;;;;;;;37.30;6.78;;;;;;;;;;5054248;28;20440;-87
2022/01/17 12:32:04;;;;;;;35.97;7.00;;;;;;;;;;5054783;28;20040;-88
2022/01/17 12:34:39;;;;;;;38.10;6.78;;;;;;;;;;5071248;28;20135;-87
2022/01/17 12:37:25;;;;;;;42.88;7.15;;;;;;;;;;5072594;28;20051;-87
2022/01/17 12:39:51;;;;;;;37.33;7.88;;;;;;;;;;5070793;28;20060;-87
2022/01/17 12:42:17;;;;;;;35.42;6.90;;;;;;;;;;5071210;28;20048;-88
2022/01/17 12:44:45;;;;;;;38.25;8.13;;;;;;;;;;5070927;28;20058;-87
2022/01/17 12:47:11;;;;;;;40.17;6.47;;;;;;;;;;5074518;28;20237;-88
2022/01/17 12:49:39;;;;;;;33.90;5.88;;;;;;;;;;5058457;28;20389;-87
2022/01/17 12:52:05;;;;;;;39.75;6.57;;;;;;;;;;5058613;28;20036;-88
2022/01/17 12:54:33;;;;;;;36.45;7.97;;;;;;;;;;5074788;28;20036;-87
2022/01/17 12:57:01;;;;;;;34.70;5.90;;;;;;;;;;5075002;28;20040;-88
2022/01/17 12:59:27;;;;;;;37.63;6.70;;;;;;;;;;5074884;28;20044;-87
2022/01/17 13:01:58;;;;;;;38.33;6.93;;;;;;;;;;5075299;28;20519;-87
2022/01/17 13:04:24;;;;;;;38.72;6.45;;;;;;;;;;5074506;28;20045;-88
2022/01/17 13:06:52;;;;;;;33.83;7.22;;;;;;;;;;5075158;28;20143;-88
2022/01/17 13:09:21;;;;;;;33.30;6.25;;;;;;;;;;5074662;28;20037;-89
2022/01/17 13:11:47;;;;;;;31.08;6.03;;;;;;;;;;5058164;28;20039;-88
2022/01/17 13:14:14;;;;;;;36.85;5.75;;;;;;;;;;5075561;28;20055;-89
2022/01/17 13:16:40;;;;;;;38.45;5.72;;;;;;;;;;5074654;28;20491;-87
2022/01/17 13:19:08;;;;;;;41.15;5.95;;;;;;;;;;5074377;28;20055;-88
2022/01/17 13:21:37;;;;;;;38.00;6.50;;;;;;;;;;5074615;28;20040;-86
2022/01/17 13:24:15;;;;;;;33.38;6.57;;;;;;;;;;5074274;28;20045;-88
2022/01/17 13:26:44;;;;;;;37.67;6.90;;;;;;;;;;5057849;28;20098;-88
2022/01/17 13:29:10;;;;;;;39.00;6.45;;;;;;;;;;5074349;28;20043;-88
2022/01/17 13:31:37;;;;;;;31.13;6.05;;;;;;;;;;5074416;28;20059;-88
2022/01/17 13:34:24;;;;;;;38.17;6.10;;;;;;;;;;5074132;28;20048;-90
2022/01/17 13:36:51;;;;;;;27.67;5.03;;;;;;;;;;5057666;28;20051;-87
2022/01/17 13:39:18;;;;;;;35.25;5.93;;;;;;;;;;5073934;28;20106;-88
2022/01/17 13:41:46;;;;;;;29.95;6.53;;;;;;;;;;5074450;28;20036;-88
2022/01/17 13:44:13;;;;;;;30.45;5.63;;;;;;;;;;5057093;28;20049;-88
2022/01/17 13:46:52;;;;;;;46.50;7.15;;;;;;;;;;5074592;28;20081;-89
2022/01/17 13:49:18;;;;;;;29.85;5.78;;;;;;;;;;5057543;28;20551;-88
2022/01/17 13:51:46;;;;;;;39.15;5.68;;;;;;;;;;5074274;28;20086;-93
2022/01/17 13:54:22;;;;;;;29.55;5.50;;;;;;;;;;5075342;28;20040;-91
2022/01/17 13:56:48;;;;;;;33.80;7.10;;;;;;;;;;5057796;28;20044;-92
2022/01/17 13:59:16;;;;;;;26.80;4.72;;;;;;;;;;5074237;28;20047;-87
2022/01/17 14:01:42;;;;;;;27.20;5.50;;;;;;;;;;5074211;28;20048;-88
2022/01/17 14:04:15;;;;;;;30.58;5.55;;;;;;;;;;5073531;28;20048;-88
2022/01/17 14:06:41;;;;;;;31.88;5.75;;;;;;;;;;5074039;28;20048;-88
2022/01/17 14:09:08;;;;;;;34.95;6.18;;;;;;;;;;5056795;28;20037;-89
2022/01/17 14:11:39;;;;;;;37.40;6.43;;;;;;;;;;5075014;28;20503;-88
2022/01/17 14:14:07;;;;;;;33.83;6.05;;;;;;;;;;5075016;28;20049;-86
2022/01/17 14:16:33;;;;;;;30.08;5.68;;;;;;;;;;5074105;28;20054;-88
2022/01/17 14:19:13;;;;;;;27.73;5.13;;;;;;;;;;5074891;28;20044;-88
2022/01/17 14:21:43;;;;;;;29.00;5.82;;;;;;;;;;5074777;28;20041;-88
2022/01/17 14:24:25;;;;;;;28.83;6.22;;;;;;;;;;5074684;28;20044;-87
2022/01/17 14:26:55;;;;;;;26.38;5.25;;;;;;;;;;5073326;28;20045;-88
2022/01/17 14:29:26;;;;;;;33.88;5.45;;;;;;;;;;5075890;28;20033;-87
2022/01/17 14:31:53;;;;;;;30.25;6.20;;;;;;;;;;5073569;28;20082;-89
2022/01/17 14:34:20;;;;;;;34.17;5.63;;;;;;;;;;5072968;28;20132;-87
2022/01/17 14:37:05;;;;;;;29.50;5.97;;;;;;;;;;5073467;28;20426;-87
2022/01/17 14:39:34;;;;;;;48.65;6.72;;;;;;;;;;5072775;28;20114;-90
2022/01/17 14:42:04;;;;;;;30.33;5.43;;;;;;;;;;5073144;28;20102;-88
2022/01/17 14:44:32;;;;;;;32.72;6.60;;;;;;;;;;5072620;28;20052;-88
2022/01/17 14:47:01;;;;;;;32.85;5.93;;;;;;;;;;5056366;28;20036;-90
2022/01/17 14:49:29;;;;;;;37.92;6.25;;;;;;;;;;5074008;28;20048;-88
2022/01/17 14:51:57;;;;;;;35.65;5.47;;;;;;;;;;5056289;28;20036;-88
2022/01/17 14:54:32;;;;;;;31.20;5.97;;;;;;;;;;5055854;28;20055;-89
2022/01/17 15:04:39;;;;;;;35.50;6.57;;;;;;;;;;5073301;28;20048;-89
2022/01/17 15:07:16;;;;;;;42.83;7.40;;;;;;;;;;5056173;28;20036;-91
2022/01/17 15:09:45;;;;;;;46.25;7.60;;;;;;;;;;5055332;28;20177;-91
2022/01/17 15:12:12;;;;;;;47.33;7.47;;;;;;;;;;5072927;28;20188;-91
2022/01/17 15:14:39;;;;;;;44.05;6.72;;;;;;;;;;5072404;28;20052;-90